메인 페이지
METAR-TAF:

METAR-TAF

공항 :

Perry Lefors Field

Pampa, 텍사스, 미국

위도: 35-36-46N, 경도: 100-59-46W, 고도: 989m

현재 날씨관측

예보는 21분 전, 21:35시(UTC)에 발표되었습니다.
북북동11kt, 순간 최대 풍속 15kt
온도 12°C
습도 58%
기압 1021 hPa
시정: 16.1km
고도 7500ft 상공 구름 보통
고도 8500ft 상공 구름 많음
고도 12000ft 상공 구름 많음

METAR: KPPA 192135Z AUTO 02011G15KT 10SM SCT075 BKN085 BKN120 12/04 A3014 RMK AO2 T01220038

시각: 16:56 (21:56 UTC)


TAF: 누락

4,000개 이상의 공항 관측 자료 및 예보 (METAR 및 TAF 보고).

지도상에서 검색 가능한 기상관측소가 노란 점과 빨간 점으로 표시되어 있습니다.

기상관측소 명을 보려면 표시 위로 마우스를 이동하세요.

날씨 관측과 예보를 보려면 클릭하세요.

지도 변경 : 확대하려면 엑스 표시가 있는 녹색 버튼, 축소하려면 빼기 표시가 있는 녹색 버튼, 다음 페이지의 지도를 보려면 녹색 화살표를 클릭하세요.


METAR-TAF: